sensor_id;sensor_type;location;lat;lon;timestamp;pressure;altitude;pressure_sealevel;temperature;humidity
22000;BME280;11164;48.818;2.322;2022-08-18T00:04:34;100282.63;;;21.16;50.45
22000;BME280;11164;48.818;2.322;2022-08-18T00:07:13;100298.81;;;21.17;50.45
22000;BME280;11164;48.818;2.322;2022-08-18T00:09:39;100295.22;;;21.17;50.38
22000;BME280;11164;48.818;2.322;2022-08-18T00:12:16;100297.13;;;21.22;50.18
22000;BME280;11164;48.818;2.322;2022-08-18T00:14:44;100300.72;;;21.12;50.30
22000;BME280;11164;48.818;2.322;2022-08-18T00:17:10;100291.41;;;21.08;50.29
22000;BME280;11164;48.818;2.322;2022-08-18T00:19:35;100289.75;;;21.12;50.37
22000;BME280;11164;48.818;2.322;2022-08-18T00:22:01;100287.31;;;21.10;50.17
22000;BME280;11164;48.818;2.322;2022-08-18T00:24:26;100291.94;;;21.05;50.42
22000;BME280;11164;48.818;2.322;2022-08-18T00:26:51;100291.69;;;21.06;50.56
22000;BME280;11164;48.818;2.322;2022-08-18T00:29:19;100299.09;;;21.11;50.50
22000;BME280;11164;48.818;2.322;2022-08-18T00:31:44;100300.72;;;21.12;50.42
22000;BME280;11164;48.818;2.322;2022-08-18T00:34:09;100297.69;;;21.18;50.17
22000;BME280;11164;48.818;2.322;2022-08-18T00:36:35;100291.66;;;21.11;50.51
22000;BME280;11164;48.818;2.322;2022-08-18T00:39:01;100283.19;;;21.08;50.31
22000;BME280;11164;48.818;2.322;2022-08-18T00:41:26;100285.38;;;21.06;50.48
22000;BME280;11164;48.818;2.322;2022-08-18T00:43:53;100290.34;;;20.98;50.65
22000;BME280;11164;48.818;2.322;2022-08-18T00:46:31;100299.91;;;21.01;51.04
22000;BME280;11164;48.818;2.322;2022-08-18T00:48:59;100300.72;;;21.07;50.38
22000;BME280;11164;48.818;2.322;2022-08-18T00:54:08;100299.09;;;20.95;51.18
22000;BME280;11164;48.818;2.322;2022-08-18T00:56:41;100297.75;;;20.88;50.90
22000;BME280;11164;48.818;2.322;2022-08-18T00:59:34;100298.03;;;20.91;51.24
22000;BME280;11164;48.818;2.322;2022-08-18T01:02:05;100305.66;;;20.99;50.73
22000;BME280;11164;48.818;2.322;2022-08-18T01:04:55;100301.56;;;20.92;51.74
22000;BME280;11164;48.818;2.322;2022-08-18T01:07:42;100299.38;;;20.73;51.84
22000;BME280;11164;48.818;2.322;2022-08-18T01:10:10;100308.72;;;20.67;51.37
22000;BME280;11164;48.818;2.322;2022-08-18T01:12:39;100299.09;;;20.54;51.55
22000;BME280;11164;48.818;2.322;2022-08-18T01:15:05;100304.81;;;20.53;51.86
22000;BME280;11164;48.818;2.322;2022-08-18T01:17:31;100295.53;;;20.54;51.88
22000;BME280;11164;48.818;2.322;2022-08-18T01:20:21;100289.78;;;20.55;51.81
22000;BME280;11164;48.818;2.322;2022-08-18T01:23:15;100289.53;;;20.57;51.64
22000;BME280;11164;48.818;2.322;2022-08-18T01:25:41;100288.69;;;20.56;51.35
22000;BME280;11164;48.818;2.322;2022-08-18T01:28:31;100292.22;;;20.41;51.89
22000;BME280;11164;48.818;2.322;2022-08-18T01:30:58;100291.66;;;20.24;52.18
22000;BME280;11164;48.818;2.322;2022-08-18T01:33:32;100300.13;;;20.17;52.54
22000;BME280;11164;48.818;2.322;2022-08-18T01:36:09;100308.91;;;20.30;52.34
22000;BME280;11164;48.818;2.322;2022-08-18T01:38:36;100304.25;;;20.35;52.02
22000;BME280;11164;48.818;2.322;2022-08-18T01:41:03;100292.75;;;20.33;51.82
22000;BME280;11164;48.818;2.322;2022-08-18T01:43:28;100299.03;;;20.39;51.86
22000;BME280;11164;48.818;2.322;2022-08-18T01:45:54;100300.69;;;20.40;51.81
22000;BME280;11164;48.818;2.322;2022-08-18T01:48:21;100304.25;;;20.40;51.76
22000;BME280;11164;48.818;2.322;2022-08-18T01:50:47;100305.66;;;20.48;51.72
22000;BME280;11164;48.818;2.322;2022-08-18T01:53:14;100297.72;;;20.52;51.64
22000;BME280;11164;48.818;2.322;2022-08-18T01:55:40;100312.78;;;20.54;51.56
22000;BME280;11164;48.818;2.322;2022-08-18T01:58:08;100310.00;;;20.49;51.53
22000;BME280;11164;48.818;2.322;2022-08-18T02:00:34;100298.50;;;20.42;51.61
22000;BME280;11164;48.818;2.322;2022-08-18T02:03:06;100312.19;;;20.42;51.97
22000;BME280;11164;48.818;2.322;2022-08-18T02:05:36;100314.13;;;20.36;51.99
22000;BME280;11164;48.818;2.322;2022-08-18T02:08:02;100310.28;;;20.27;52.20
22000;BME280;11164;48.818;2.322;2022-08-18T02:10:28;100314.63;;;20.23;52.26
22000;BME280;11164;48.818;2.322;2022-08-18T02:12:54;100303.38;;;20.14;52.31
22000;BME280;11164;48.818;2.322;2022-08-18T02:15:19;100304.50;;;20.18;52.34
22000;BME280;11164;48.818;2.322;2022-08-18T02:17:45;100307.22;;;20.13;52.08
22000;BME280;11164;48.818;2.322;2022-08-18T02:20:14;100312.44;;;20.10;52.62
22000;BME280;11164;48.818;2.322;2022-08-18T02:22:41;100311.84;;;20.02;52.36
22000;BME280;11164;48.818;2.322;2022-08-18T02:25:07;100317.56;;;19.91;52.88
22000;BME280;11164;48.818;2.322;2022-08-18T02:27:33;100318.38;;;19.91;52.75
22000;BME280;11164;48.818;2.322;2022-08-18T02:30:00;100319.16;;;19.86;52.82
22000;BME280;11164;48.818;2.322;2022-08-18T02:32:26;100325.34;;;19.61;53.09
22000;BME280;11164;48.818;2.322;2022-08-18T02:34:53;100332.00;;;19.28;53.81
22000;BME280;11164;48.818;2.322;2022-08-18T02:37:18;100320.47;;;19.26;53.68
22000;BME280;11164;48.818;2.322;2022-08-18T02:39:44;100329.84;;;19.35;53.20
22000;BME280;11164;48.818;2.322;2022-08-18T02:42:09;100331.09;;;19.22;53.37
22000;BME280;11164;48.818;2.322;2022-08-18T02:44:34;100322.13;;;19.27;53.13
22000;BME280;11164;48.818;2.322;2022-08-18T02:47:00;100318.63;;;19.31;52.88
22000;BME280;11164;48.818;2.322;2022-08-18T02:49:26;100325.72;;;19.33;52.80
22000;BME280;11164;48.818;2.322;2022-08-18T02:51:52;100320.69;;;19.14;53.12
22000;BME280;11164;48.818;2.322;2022-08-18T02:54:19;100320.31;;;19.05;53.21
22000;BME280;11164;48.818;2.322;2022-08-18T02:56:45;100321.91;;;19.01;53.45
22000;BME280;11164;48.818;2.322;2022-08-18T02:59:16;100311.88;;;19.07;53.11
22000;BME280;11164;48.818;2.322;2022-08-18T03:01:43;100303.16;;;19.10;52.74
22000;BME280;11164;48.818;2.322;2022-08-18T03:04:12;100316.63;;;19.22;52.71
22000;BME280;11164;48.818;2.322;2022-08-18T03:06:38;100319.13;;;19.28;52.55
22000;BME280;11164;48.818;2.322;2022-08-18T03:09:05;100311.69;;;19.19;52.83
22000;BME280;11164;48.818;2.322;2022-08-18T03:11:31;100296.66;;;19.16;52.79
22000;BME280;11164;48.818;2.322;2022-08-18T03:13:56;100310.63;;;19.25;52.23
22000;BME280;11164;48.818;2.322;2022-08-18T03:16:23;100301.28;;;19.16;52.71
22000;BME280;11164;48.818;2.322;2022-08-18T03:18:52;100307.88;;;19.20;52.42
22000;BME280;11164;48.818;2.322;2022-08-18T03:21:22;100306.78;;;19.21;52.47
22000;BME280;11164;48.818;2.322;2022-08-18T03:23:49;100303.00;;;19.27;52.11
22000;BME280;11164;48.818;2.322;2022-08-18T03:26:16;100304.03;;;19.21;52.49
22000;BME280;11164;48.818;2.322;2022-08-18T03:28:46;100298.53;;;19.16;52.50
22000;BME280;11164;48.818;2.322;2022-08-18T03:31:12;100297.75;;;19.20;52.31
22000;BME280;11164;48.818;2.322;2022-08-18T03:33:39;100305.72;;;19.27;52.33
22000;BME280;11164;48.818;2.322;2022-08-18T03:36:08;100297.78;;;19.25;52.42
22000;BME280;11164;48.818;2.322;2022-08-18T03:38:34;100304.28;;;19.19;52.20
22000;BME280;11164;48.818;2.322;2022-08-18T03:40:59;100298.88;;;19.24;52.32
22000;BME280;11164;48.818;2.322;2022-08-18T03:43:25;100299.50;;;19.37;52.11
22000;BME280;11164;48.818;2.322;2022-08-18T03:45:51;100305.28;;;19.40;51.93
22000;BME280;11164;48.818;2.322;2022-08-18T03:48:19;100306.09;;;19.46;51.88
22000;BME280;11164;48.818;2.322;2022-08-18T03:50:45;100303.13;;;19.47;51.93
22000;BME280;11164;48.818;2.322;2022-08-18T03:53:11;100300.91;;;19.44;51.91
22000;BME280;11164;48.818;2.322;2022-08-18T03:55:39;100300.66;;;19.46;51.97
22000;BME280;11164;48.818;2.322;2022-08-18T03:58:05;100295.44;;;19.44;51.90
22000;BME280;11164;48.818;2.322;2022-08-18T04:00:31;100289.69;;;19.41;51.86
22000;BME280;11164;48.818;2.322;2022-08-18T04:02:58;100293.78;;;19.43;51.68
22000;BME280;11164;48.818;2.322;2022-08-18T04:05:26;100291.00;;;19.38;51.80
22000;BME280;11164;48.818;2.322;2022-08-18T04:07:53;100296.44;;;19.33;52.09
22000;BME280;11164;48.818;2.322;2022-08-18T04:10:18;100296.00;;;19.04;52.56
22000;BME280;11164;48.818;2.322;2022-08-18T04:12:44;100283.91;;;19.00;52.37
22000;BME280;11164;48.818;2.322;2022-08-18T04:15:09;100285.69;;;19.11;52.32
22000;BME280;11164;48.818;2.322;2022-08-18T04:17:35;100297.19;;;19.18;52.28
22000;BME280;11164;48.818;2.322;2022-08-18T04:20:01;100294.19;;;19.15;52.25
22000;BME280;11164;48.818;2.322;2022-08-18T04:22:26;100285.97;;;19.15;51.95
22000;BME280;11164;48.818;2.322;2022-08-18T04:24:52;100283.97;;;19.05;52.29
22000;BME280;11164;48.818;2.322;2022-08-18T04:27:19;100297.16;;;19.13;52.32
22000;BME280;11164;48.818;2.322;2022-08-18T04:29:46;100296.13;;;19.24;52.04
22000;BME280;11164;48.818;2.322;2022-08-18T04:32:12;100289.63;;;19.30;51.82
22000;BME280;11164;48.818;2.322;2022-08-18T04:34:37;100293.47;;;19.35;51.82
22000;BME280;11164;48.818;2.322;2022-08-18T04:37:03;100301.38;;;19.31;51.83
22000;BME280;11164;48.818;2.322;2022-08-18T04:39:29;100302.97;;;19.22;51.81
22000;BME280;11164;48.818;2.322;2022-08-18T04:41:55;100302.19;;;19.26;51.95
22000;BME280;11164;48.818;2.322;2022-08-18T04:44:20;100307.38;;;19.28;51.71
22000;BME280;11164;48.818;2.322;2022-08-18T04:46:49;100305.25;;;19.35;51.73
22000;BME280;11164;48.818;2.322;2022-08-18T04:49:20;100305.56;;;19.44;51.42
22000;BME280;11164;48.818;2.322;2022-08-18T04:51:48;100303.09;;;19.42;51.25
22000;BME280;11164;48.818;2.322;2022-08-18T04:54:36;100303.38;;;19.46;51.56
22000;BME280;11164;48.818;2.322;2022-08-18T04:57:12;100305.28;;;19.40;51.51
22000;BME280;11164;48.818;2.322;2022-08-18T04:59:38;100315.66;;;19.43;51.27
22000;BME280;11164;48.818;2.322;2022-08-18T05:02:04;100311.03;;;19.44;51.30
22000;BME280;11164;48.818;2.322;2022-08-18T05:04:31;100315.66;;;19.43;51.39
22000;BME280;11164;48.818;2.322;2022-08-18T05:06:59;100321.97;;;19.44;51.35
22000;BME280;11164;48.818;2.322;2022-08-18T05:09:25;100322.19;;;19.37;51.46
22000;BME280;11164;48.818;2.322;2022-08-18T05:11:50;100324.94;;;19.37;51.80
22000;BME280;11164;48.818;2.322;2022-08-18T05:14:15;100331.28;;;19.48;51.46
22000;BME280;11164;48.818;2.322;2022-08-18T05:16:42;100335.63;;;19.44;51.25
22000;BME280;11164;48.818;2.322;2022-08-18T05:19:09;100330.09;;;19.34;51.81
22000;BME280;11164;48.818;2.322;2022-08-18T05:21:36;100334.13;;;19.26;51.98
22000;BME280;11164;48.818;2.322;2022-08-18T05:24:02;100333.59;;;19.24;52.12
22000;BME280;11164;48.818;2.322;2022-08-18T05:26:28;100339.03;;;19.24;52.07
22000;BME280;11164;48.818;2.322;2022-08-18T05:28:54;100340.75;;;19.30;51.99
22000;BME280;11164;48.818;2.322;2022-08-18T05:31:23;100339.69;;;19.41;51.86
22000;BME280;11164;48.818;2.322;2022-08-18T05:33:51;100347.72;;;19.53;51.66
22000;BME280;11164;48.818;2.322;2022-08-18T05:42:12;100354.56;;;19.61;51.61
22000;BME280;11164;48.818;2.322;2022-08-18T05:44:41;100354.56;;;19.61;51.60
22000;BME280;11164;48.818;2.322;2022-08-18T05:47:21;100350.94;;;19.45;51.95
22000;BME280;11164;48.818;2.322;2022-08-18T05:49:48;100371.19;;;19.44;51.81
22000;BME280;11164;48.818;2.322;2022-08-18T05:52:17;100362.41;;;19.42;51.83
22000;BME280;11164;48.818;2.322;2022-08-18T05:54:47;100363.03;;;19.54;51.63
22000;BME280;11164;48.818;2.322;2022-08-18T05:57:39;100378.13;;;19.67;51.40
22000;BME280;11164;48.818;2.322;2022-08-18T06:00:07;100380.59;;;19.63;51.39
22000;BME280;11164;48.818;2.322;2022-08-18T06:05:08;100384.41;;;19.62;51.56
22000;BME280;11164;48.818;2.322;2022-08-18T06:07:39;100377.03;;;19.63;51.54
22000;BME280;11164;48.818;2.322;2022-08-18T06:10:08;100377.44;;;19.82;51.29
22000;BME280;11164;48.818;2.322;2022-08-18T06:12:41;100379.34;;;19.86;50.98
22000;BME280;11164;48.818;2.322;2022-08-18T06:18:08;100365.50;;;20.03;50.86
22000;BME280;11164;48.818;2.322;2022-08-18T06:28:57;100367.78;;;20.42;50.30
22000;BME280;11164;48.818;2.322;2022-08-18T06:31:39;100367.03;;;20.62;49.76
22000;BME280;11164;48.818;2.322;2022-08-18T06:42:04;100383.22;;;21.41;48.50
22000;BME280;11164;48.818;2.322;2022-08-18T06:47:12;100388.13;;;21.60;48.16
22000;BME280;11164;48.818;2.322;2022-08-18T06:54:59;100390.06;;;21.64;48.58
22000;BME280;11164;48.818;2.322;2022-08-18T06:57:36;100391.44;;;21.51;48.69
22000;BME280;11164;48.818;2.322;2022-08-18T07:00:19;100394.69;;;21.64;48.71
22000;BME280;11164;48.818;2.322;2022-08-18T07:08:46;100405.88;;;22.63;45.74
22000;BME280;11164;48.818;2.322;2022-08-18T07:13:41;100405.50;;;22.30;47.77
22000;BME280;11164;48.818;2.322;2022-08-18T07:18:40;100397.09;;;22.56;47.32
22000;BME280;11164;48.818;2.322;2022-08-18T07:21:05;100396.22;;;22.66;46.83
22000;BME280;11164;48.818;2.322;2022-08-18T07:23:37;100388.56;;;22.63;47.01
22000;BME280;11164;48.818;2.322;2022-08-18T07:26:09;100389.72;;;22.52;46.97
22000;BME280;11164;48.818;2.322;2022-08-18T07:28:44;100385.63;;;22.44;47.02
22000;BME280;11164;48.818;2.322;2022-08-18T07:34:01;100394.63;;;22.65;46.76
22000;BME280;11164;48.818;2.322;2022-08-18T07:36:31;100398.72;;;22.62;47.50
22000;BME280;11164;48.818;2.322;2022-08-18T07:39:04;100398.44;;;22.64;46.75
22000;BME280;11164;48.818;2.322;2022-08-18T07:41:48;100405.31;;;22.66;46.72
22000;BME280;11164;48.818;2.322;2022-08-18T07:46:57;100412.34;;;22.28;47.17
22000;BME280;11164;48.818;2.322;2022-08-18T07:49:27;100413.44;;;22.32;47.72
22000;BME280;11164;48.818;2.322;2022-08-18T07:57:03;100415.78;;;22.54;46.07
22000;BME280;11164;48.818;2.322;2022-08-18T07:59:42;100418.28;;;22.50;46.88
22000;BME280;11164;48.818;2.322;2022-08-18T08:02:25;100401.19;;;22.64;46.77
22000;BME280;11164;48.818;2.322;2022-08-18T08:10:32;100408.72;;;23.22;44.59
22000;BME280;11164;48.818;2.322;2022-08-18T08:16:05;100407.22;;;23.40;44.66
22000;BME280;11164;48.818;2.322;2022-08-18T08:19:02;100404.97;;;23.47;45.45
22000;BME280;11164;48.818;2.322;2022-08-18T08:21:31;100393.38;;;23.50;45.35
22000;BME280;11164;48.818;2.322;2022-08-18T08:24:21;100396.03;;;23.60;45.24
22000;BME280;11164;48.818;2.322;2022-08-18T08:26:58;100396.19;;;23.98;44.54
22000;BME280;11164;48.818;2.322;2022-08-18T08:32:29;100379.75;;;24.12;44.61
22000;BME280;11164;48.818;2.322;2022-08-18T08:35:01;100370.25;;;24.43;43.87
22000;BME280;11164;48.818;2.322;2022-08-18T08:37:38;100378.94;;;24.50;43.80
22000;BME280;11164;48.818;2.322;2022-08-18T08:40:19;100376.69;;;24.90;42.82
22000;BME280;11164;48.818;2.322;2022-08-18T08:45:21;100380.31;;;24.71;43.63
22000;BME280;11164;48.818;2.322;2022-08-18T08:48:04;100387.41;;;25.10;41.81
22000;BME280;11164;48.818;2.322;2022-08-18T08:50:37;100396.00;;;24.90;42.86
22000;BME280;11164;48.818;2.322;2022-08-18T08:53:13;100407.03;;;24.52;43.84
22000;BME280;11164;48.818;2.322;2022-08-18T08:55:48;100412.59;;;24.47;43.91
22000;BME280;11164;48.818;2.322;2022-08-18T08:58:24;100400.66;;;24.57;42.92
22000;BME280;11164;48.818;2.322;2022-08-18T09:00:53;100398.50;;;24.72;43.12
22000;BME280;11164;48.818;2.322;2022-08-18T09:03:46;100404.06;;;24.67;41.59
22000;BME280;11164;48.818;2.322;2022-08-18T09:06:33;100407.13;;;24.66;42.22
22000;BME280;11164;48.818;2.322;2022-08-18T09:14:41;100422.59;;;24.43;42.28
22000;BME280;11164;48.818;2.322;2022-08-18T09:23:13;100422.19;;;24.92;41.73
22000;BME280;11164;48.818;2.322;2022-08-18T09:36:34;100416.03;;;25.61;38.72
22000;BME280;11164;48.818;2.322;2022-08-18T09:42:11;100412.06;;;25.54;41.13
22000;BME280;11164;48.818;2.322;2022-08-18T09:45:38;100416.00;;;25.94;38.83
22000;BME280;11164;48.818;2.322;2022-08-18T09:47:57;100417.13;;;25.93;40.35
22000;BME280;11164;48.818;2.322;2022-08-18T09:53:01;100420.19;;;26.19;39.61
22000;BME280;11164;48.818;2.322;2022-08-18T09:55:50;100421.19;;;26.23;39.65
22000;BME280;11164;48.818;2.322;2022-08-18T10:06:44;100408.56;;;26.95;38.21
22000;BME280;11164;48.818;2.322;2022-08-18T10:15:35;100390.91;;;26.69;36.71
22000;BME280;11164;48.818;2.322;2022-08-18T10:22:51;100389.44;;;26.85;38.15
22000;BME280;11164;48.818;2.322;2022-08-18T10:25:39;100387.38;;;27.13;36.13
22000;BME280;11164;48.818;2.322;2022-08-18T10:28:10;100373.16;;;27.06;36.94
22000;BME280;11164;48.818;2.322;2022-08-18T10:31:04;100372.88;;;26.71;36.26
22000;BME280;11164;48.818;2.322;2022-08-18T10:33:57;100371.69;;;26.86;34.38
22000;BME280;11164;48.818;2.322;2022-08-18T10:39:05;100365.53;;;26.89;36.74
22000;BME280;11164;48.818;2.322;2022-08-18T10:41:32;100358.78;;;26.95;36.80
22000;BME280;11164;48.818;2.322;2022-08-18T10:44:00;100367.78;;;26.87;37.13
22000;BME280;11164;48.818;2.322;2022-08-18T10:46:31;100370.97;;;26.94;36.62
22000;BME280;11164;48.818;2.322;2022-08-18T10:49:02;100365.97;;;27.05;36.42
22000;BME280;11164;48.818;2.322;2022-08-18T10:57:58;100356.03;;;27.58;32.60
22000;BME280;11164;48.818;2.322;2022-08-18T11:00:34;100363.00;;;27.56;31.34
22000;BME280;11164;48.818;2.322;2022-08-18T11:05:34;100369.34;;;27.25;35.73
22000;BME280;11164;48.818;2.322;2022-08-18T11:08:03;100359.59;;;27.27;35.78
22000;BME280;11164;48.818;2.322;2022-08-18T11:10:42;100355.19;;;27.26;32.10
22000;BME280;11164;48.818;2.322;2022-08-18T11:18:34;100349.91;;;27.79;33.24
22000;BME280;11164;48.818;2.322;2022-08-18T11:21:22;100337.66;;;27.71;31.53
22000;BME280;11164;48.818;2.322;2022-08-18T11:24:26;100354.63;;;27.47;31.93
22000;BME280;11164;48.818;2.322;2022-08-18T11:26:55;100359.19;;;27.74;34.16
22000;BME280;11164;48.818;2.322;2022-08-18T11:29:27;100357.19;;;27.66;33.54
22000;BME280;11164;48.818;2.322;2022-08-18T11:32:44;100359.97;;;27.75;32.19
22000;BME280;11164;48.818;2.322;2022-08-18T11:35:33;100367.03;;;27.81;33.85
22000;BME280;11164;48.818;2.322;2022-08-18T11:48:18;100354.03;;;27.50;33.06
22000;BME280;11164;48.818;2.322;2022-08-18T11:56:16;100367.94;;;27.67;31.05
22000;BME280;11164;48.818;2.322;2022-08-18T11:58:54;100362.34;;;27.99;30.28
22000;BME280;11164;48.818;2.322;2022-08-18T12:01:33;100369.59;;;28.17;31.83
22000;BME280;11164;48.818;2.322;2022-08-18T12:06:58;100367.81;;;27.72;30.13
22000;BME280;11164;48.818;2.322;2022-08-18T12:12:29;100353.31;;;27.35;33.28
22000;BME280;11164;48.818;2.322;2022-08-18T12:17:30;100373.47;;;27.36;32.39
22000;BME280;11164;48.818;2.322;2022-08-18T12:19:56;100375.81;;;27.43;32.79
22000;BME280;11164;48.818;2.322;2022-08-18T12:22:28;100368.16;;;27.80;31.35
22000;BME280;11164;48.818;2.322;2022-08-18T12:24:55;100367.81;;;28.39;31.56
22000;BME280;11164;48.818;2.322;2022-08-18T12:27:23;100363.59;;;28.68;31.02
22000;BME280;11164;48.818;2.322;2022-08-18T12:29:52;100366.22;;;28.64;30.58
22000;BME280;11164;48.818;2.322;2022-08-18T12:32:20;100362.75;;;29.02;30.39
22000;BME280;11164;48.818;2.322;2022-08-18T12:34:46;100352.06;;;29.30;29.85
22000;BME280;11164;48.818;2.322;2022-08-18T12:37:15;100357.97;;;29.11;30.36
22000;BME280;11164;48.818;2.322;2022-08-18T12:39:40;100349.47;;;29.25;29.76
22000;BME280;11164;48.818;2.322;2022-08-18T12:42:07;100347.03;;;30.22;28.40
22000;BME280;11164;48.818;2.322;2022-08-18T12:44:33;100342.16;;;31.28;26.68
22000;BME280;11164;48.818;2.322;2022-08-18T12:47:00;100341.81;;;31.29;26.19
22000;BME280;11164;48.818;2.322;2022-08-18T12:49:26;100337.06;;;31.91;26.05
22000;BME280;11164;48.818;2.322;2022-08-18T12:51:53;100338.19;;;32.55;24.86
22000;BME280;11164;48.818;2.322;2022-08-18T12:54:20;100343.16;;;32.74;25.00
22000;BME280;11164;48.818;2.322;2022-08-18T12:56:47;100343.00;;;31.90;25.82
22000;BME280;11164;48.818;2.322;2022-08-18T12:59:14;100346.00;;;31.97;25.92
22000;BME280;11164;48.818;2.322;2022-08-18T13:01:39;100348.28;;;30.87;27.13
22000;BME280;11164;48.818;2.322;2022-08-18T13:04:05;100345.16;;;29.84;28.46
22000;BME280;11164;48.818;2.322;2022-08-18T13:06:34;100354.59;;;28.44;30.21
22000;BME280;11164;48.818;2.322;2022-08-18T13:09:00;100349.50;;;28.12;30.67
22000;BME280;11164;48.818;2.322;2022-08-18T13:11:25;100347.75;;;28.33;30.14
22000;BME280;11164;48.818;2.322;2022-08-18T13:13:52;100340.88;;;28.92;29.48
22000;BME280;11164;48.818;2.322;2022-08-18T13:16:18;100339.50;;;29.63;28.71
22000;BME280;11164;48.818;2.322;2022-08-18T13:18:44;100341.16;;;29.93;28.42
22000;BME280;11164;48.818;2.322;2022-08-18T13:21:11;100336.78;;;30.13;28.15
22000;BME280;11164;48.818;2.322;2022-08-18T13:23:38;100342.16;;;30.19;28.06
22000;BME280;11164;48.818;2.322;2022-08-18T13:26:05;100337.97;;;29.83;28.69
22000;BME280;11164;48.818;2.322;2022-08-18T13:28:32;100332.59;;;30.28;28.52
22000;BME280;11164;48.818;2.322;2022-08-18T13:30:58;100325.53;;;30.10;28.54
22000;BME280;11164;48.818;2.322;2022-08-18T13:33:24;100323.31;;;30.24;28.27
22000;BME280;11164;48.818;2.322;2022-08-18T13:35:50;100329.41;;;30.39;28.28
22000;BME280;11164;48.818;2.322;2022-08-18T13:38:17;100333.44;;;30.29;28.07
22000;BME280;11164;48.818;2.322;2022-08-18T13:40:49;100337.81;;;30.51;27.92
22000;BME280;11164;48.818;2.322;2022-08-18T13:43:16;100345.38;;;31.17;27.10
22000;BME280;11164;48.818;2.322;2022-08-18T13:45:44;100340.19;;;30.95;27.01
22000;BME280;11164;48.818;2.322;2022-08-18T13:48:11;100327.50;;;31.18;26.74
22000;BME280;11164;48.818;2.322;2022-08-18T13:50:36;100319.78;;;31.49;26.46
22000;BME280;11164;48.818;2.322;2022-08-18T13:53:15;100321.88;;;30.60;27.42
22000;BME280;11164;48.818;2.322;2022-08-18T13:55:43;100320.66;;;30.82;27.20
22000;BME280;11164;48.818;2.322;2022-08-18T13:58:09;100322.47;;;31.12;26.63
22000;BME280;11164;48.818;2.322;2022-08-18T14:00:34;100319.91;;;31.06;27.07
22000;BME280;11164;48.818;2.322;2022-08-18T14:03:00;100326.53;;;31.72;25.99
22000;BME280;11164;48.818;2.322;2022-08-18T14:05:26;100325.84;;;32.16;25.65
22000;BME280;11164;48.818;2.322;2022-08-18T14:07:53;100329.94;;;32.87;25.13
22000;BME280;11164;48.818;2.322;2022-08-18T14:10:19;100341.06;;;32.71;25.56
22000;BME280;11164;48.818;2.322;2022-08-18T14:12:45;100334.25;;;32.56;25.23
22000;BME280;11164;48.818;2.322;2022-08-18T14:15:13;100318.84;;;31.57;26.44
22000;BME280;11164;48.818;2.322;2022-08-18T14:17:41;100317.81;;;32.39;25.71
22000;BME280;11164;48.818;2.322;2022-08-18T14:20:07;100316.78;;;32.60;25.05
22000;BME280;11164;48.818;2.322;2022-08-18T14:22:56;100317.75;;;32.11;25.47
22000;BME280;11164;48.818;2.322;2022-08-18T14:25:40;100316.22;;;32.26;25.28
22000;BME280;11164;48.818;2.322;2022-08-18T14:28:24;100310.38;;;31.90;25.62
22000;BME280;11164;48.818;2.322;2022-08-18T14:30:50;100302.47;;;31.31;26.14
22000;BME280;11164;48.818;2.322;2022-08-18T14:33:18;100309.34;;;30.66;26.39
22000;BME280;11164;48.818;2.322;2022-08-18T14:35:44;100308.41;;;29.99;27.36
22000;BME280;11164;48.818;2.322;2022-08-18T14:38:09;100308.84;;;30.10;26.96
22000;BME280;11164;48.818;2.322;2022-08-18T14:40:36;100314.66;;;30.59;26.69
22000;BME280;11164;48.818;2.322;2022-08-18T14:43:02;100312.31;;;32.02;25.19
22000;BME280;11164;48.818;2.322;2022-08-18T14:45:29;100304.91;;;31.57;25.25
22000;BME280;11164;48.818;2.322;2022-08-18T14:47:55;100305.28;;;30.85;25.95
22000;BME280;11164;48.818;2.322;2022-08-18T14:50:21;100301.47;;;32.25;24.83
22000;BME280;11164;48.818;2.322;2022-08-18T14:52:47;100306.69;;;33.79;22.94
22000;BME280;11164;48.818;2.322;2022-08-18T14:55:14;100310.44;;;34.80;22.05
22000;BME280;11164;48.818;2.322;2022-08-18T14:57:40;100313.78;;;32.52;24.19
22000;BME280;11164;48.818;2.322;2022-08-18T15:00:08;100308.06;;;32.61;24.59
22000;BME280;11164;48.818;2.322;2022-08-18T15:02:37;100310.97;;;33.73;23.15
22000;BME280;11164;48.818;2.322;2022-08-18T15:05:04;100312.47;;;35.49;22.06
22000;BME280;11164;48.818;2.322;2022-08-18T15:07:29;100312.78;;;35.71;21.50
22000;BME280;11164;48.818;2.322;2022-08-18T15:09:55;100306.03;;;33.66;23.69
22000;BME280;11164;48.818;2.322;2022-08-18T15:12:20;100313.78;;;32.12;24.69
22000;BME280;11164;48.818;2.322;2022-08-18T15:14:50;100299.00;;;31.46;25.00
22000;BME280;11164;48.818;2.322;2022-08-18T15:17:15;100303.34;;;32.78;23.67
22000;BME280;11164;48.818;2.322;2022-08-18T15:19:40;100306.28;;;31.88;24.31
22000;BME280;11164;48.818;2.322;2022-08-18T15:22:08;100312.59;;;30.89;25.04
22000;BME280;11164;48.818;2.322;2022-08-18T15:24:52;100299.34;;;31.32;24.69
22000;BME280;11164;48.818;2.322;2022-08-18T15:27:37;100300.16;;;33.55;22.63
22000;BME280;11164;48.818;2.322;2022-08-18T15:30:09;100301.94;;;35.20;21.30
22000;BME280;11164;48.818;2.322;2022-08-18T15:32:35;100305.63;;;33.83;22.54
22000;BME280;11164;48.818;2.322;2022-08-18T15:35:03;100313.25;;;33.19;23.08
22000;BME280;11164;48.818;2.322;2022-08-18T15:37:33;100310.25;;;35.39;21.38
22000;BME280;11164;48.818;2.322;2022-08-18T15:40:23;100303.72;;;36.08;20.57
22000;BME280;11164;48.818;2.322;2022-08-18T15:42:49;100310.19;;;34.27;21.93
22000;BME280;11164;48.818;2.322;2022-08-18T15:45:20;100307.75;;;32.10;22.55
22000;BME280;11164;48.818;2.322;2022-08-18T15:47:46;100312.28;;;32.99;23.30
22000;BME280;11164;48.818;2.322;2022-08-18T15:50:13;100315.50;;;32.69;22.91
22000;BME280;11164;48.818;2.322;2022-08-18T15:52:55;100309.22;;;32.60;22.82